Winneconne, Wisconsin
Current Conditions -  °F | °C
As of 9:53 PM on Saturday 20 Dec 2014 (Local Time) from KOSH Reporting Station
Haze Haze  
Wind Chill: 28°   Ceiling: 3400
Heat Index: 28°   Visibility: 4mi
Dew Point: 25°   Wind: 0mph
Humidity: 88%   Direction: NA
Pressure: 30.21"   Gusts: NA
Location:  44.11°N, 88.71°W
Report Text: KOSH 210353Z 00000KT 4SM BR OVC034 M02/M04 A3021 RMK AO2 SLP245 T10221039
Loading
Personal Weather Stations






























Interactive Weather Map New forecast layout! Learn more

10-Day Weather Forecast

Advertisements
Track Severe Weather on mobile